createdAt,value
2022-10-03T00:02:12.188Z,2.50
2022-10-03T00:05:12.414Z,2.50
2022-10-03T00:07:56.511Z,3.00
2022-10-03T00:10:38.537Z,2.90
2022-10-03T00:13:28.373Z,1.90
2022-10-03T00:16:03.198Z,2.40
2022-10-03T00:19:08.565Z,2.50
2022-10-03T00:21:53.586Z,2.13
2022-10-03T00:24:52.457Z,2.17
2022-10-03T00:27:37.211Z,2.00
2022-10-03T00:30:22.034Z,2.83
2022-10-03T00:33:03.697Z,2.20
2022-10-03T00:35:52.739Z,2.30
2022-10-03T00:38:48.116Z,2.00
2022-10-03T00:41:38.622Z,2.20
2022-10-03T00:44:28.818Z,1.80
2022-10-03T00:46:58.792Z,2.00
2022-10-03T00:50:30.444Z,1.77
2022-10-03T00:54:02.767Z,2.30
2022-10-03T00:57:16.406Z,2.20
2022-10-03T01:00:06.144Z,1.90
2022-10-03T01:02:44.765Z,2.73
2022-10-03T01:05:46.781Z,2.13
2022-10-03T01:08:27.045Z,2.40
2022-10-03T01:11:25.034Z,2.27
2022-10-03T01:13:54.425Z,2.40
2022-10-03T01:17:13.777Z,2.30
2022-10-03T01:20:22.324Z,1.90
2022-10-03T01:23:34.151Z,2.30
2022-10-03T01:26:40.530Z,1.83
2022-10-03T01:29:34.426Z,2.00
2022-10-03T01:32:30.741Z,2.40
2022-10-03T01:36:12.410Z,2.10
2022-10-03T01:38:47.571Z,2.47
2022-10-03T01:41:50.208Z,2.43
2022-10-03T01:44:58.017Z,2.17
2022-10-03T01:47:37.618Z,2.30
2022-10-03T01:50:26.321Z,2.13
2022-10-03T01:53:53.432Z,2.43
2022-10-03T01:56:58.434Z,2.20
2022-10-03T02:00:05.372Z,2.10
2022-10-03T02:02:50.264Z,1.87
2022-10-03T02:06:01.037Z,2.13
2022-10-03T02:09:03.305Z,2.20
2022-10-03T02:12:09.245Z,2.03
2022-10-03T02:14:58.755Z,2.33
2022-10-03T02:17:58.527Z,2.30
2022-10-03T02:20:51.967Z,2.53
2022-10-03T02:23:33.633Z,2.47
2022-10-03T02:26:58.694Z,2.40
2022-10-03T02:29:49.970Z,2.17
2022-10-03T02:32:41.753Z,2.50
2022-10-03T02:35:10.433Z,2.27
2022-10-03T02:38:24.433Z,2.97
2022-10-03T02:41:32.736Z,1.90
2022-10-03T02:44:37.568Z,2.53
2022-10-03T02:47:48.716Z,2.80
2022-10-03T02:50:42.280Z,2.30
2022-10-03T02:53:51.213Z,2.60
2022-10-03T02:56:56.463Z,2.60
2022-10-03T03:00:20.863Z,2.30
2022-10-03T03:03:34.341Z,1.90
2022-10-03T03:06:54.514Z,1.70
2022-10-03T03:10:11.657Z,2.57
2022-10-03T03:12:52.939Z,2.30
2022-10-03T03:16:24.048Z,2.60
2022-10-03T03:19:43.776Z,1.80
2022-10-03T03:22:35.241Z,2.27
2022-10-03T03:25:39.182Z,2.20
2022-10-03T03:28:46.887Z,2.83
2022-10-03T03:31:29.671Z,2.80
2022-10-03T03:34:19.022Z,2.57
2022-10-03T03:37:05.095Z,2.43
2022-10-03T03:39:49.796Z,2.60
2022-10-03T03:43:04.101Z,2.60
2022-10-03T03:45:33.685Z,2.60
2022-10-03T03:49:16.473Z,2.67
2022-10-03T03:52:14.774Z,2.80
2022-10-03T03:55:32.760Z,3.33
2022-10-03T03:58:41.802Z,2.77
2022-10-03T04:01:39.661Z,2.13
2022-10-03T04:04:38.105Z,2.30
2022-10-03T04:08:12.221Z,1.90
2022-10-03T04:10:50.488Z,1.83
2022-10-03T04:13:24.316Z,2.30
2022-10-03T04:16:13.081Z,2.20
2022-10-03T04:19:06.670Z,2.70
2022-10-03T04:22:12.880Z,2.50
2022-10-03T04:25:01.269Z,2.40
2022-10-03T04:27:48.229Z,2.10
2022-10-03T04:30:51.593Z,2.20
2022-10-03T04:33:53.817Z,2.17
2022-10-03T04:36:41.170Z,1.90
2022-10-03T04:39:21.592Z,2.47
2022-10-03T04:41:55.158Z,1.87
2022-10-03T04:44:49.876Z,2.60
2022-10-03T04:47:27.573Z,2.17
2022-10-03T04:50:12.481Z,1.90
2022-10-03T04:53:04.782Z,2.50
2022-10-03T04:55:43.039Z,2.20
2022-10-03T04:58:25.151Z,3.10
2022-10-03T05:01:12.167Z,2.80
2022-10-03T05:03:57.597Z,2.53
2022-10-03T05:06:49.288Z,3.07
2022-10-03T05:09:42.196Z,2.60
2022-10-03T05:12:45.852Z,2.40
2022-10-03T05:15:42.264Z,2.07
2022-10-03T05:18:58.968Z,2.37
2022-10-03T05:22:20.940Z,2.33
2022-10-03T05:25:11.869Z,2.17
2022-10-03T05:28:11.776Z,2.40
2022-10-03T05:31:08.210Z,2.50
2022-10-03T05:33:54.450Z,2.00
2022-10-03T05:36:24.289Z,2.60
2022-10-03T05:39:28.185Z,2.90
2022-10-03T05:42:20.856Z,2.90
2022-10-03T05:44:58.345Z,1.97
2022-10-03T05:48:11.003Z,2.17
2022-10-03T05:51:15.340Z,1.97
2022-10-03T05:54:24.052Z,2.10
2022-10-03T05:57:07.219Z,1.97
2022-10-03T06:00:08.229Z,2.17
2022-10-03T06:03:10.877Z,2.27
2022-10-03T06:06:27.331Z,2.40
2022-10-03T06:09:45.444Z,2.40
2022-10-03T06:12:43.587Z,2.77
2022-10-03T06:15:43.418Z,2.50
2022-10-03T06:18:38.211Z,2.23
2022-10-03T06:21:48.800Z,2.87
2022-10-03T06:25:11.359Z,2.80
2022-10-03T06:27:59.084Z,2.87
2022-10-03T06:31:02.756Z,2.67
2022-10-03T06:33:35.276Z,2.90
2022-10-03T06:36:13.841Z,2.97
2022-10-03T06:39:33.091Z,3.00
2022-10-03T06:42:34.858Z,2.60
2022-10-03T06:45:31.115Z,3.27
2022-10-03T06:48:49.299Z,2.90
2022-10-03T06:51:40.622Z,3.63
2022-10-03T06:55:04.401Z,3.57
2022-10-03T06:58:27.186Z,3.17
2022-10-03T07:01:31.529Z,2.87
2022-10-03T07:04:31.553Z,2.93
2022-10-03T07:07:53.772Z,3.30
2022-10-03T07:11:09.999Z,3.20
2022-10-03T07:14:36.887Z,3.07
2022-10-03T07:17:29.518Z,2.60
2022-10-03T07:20:26.877Z,3.40
2022-10-03T07:23:52.193Z,3.07
2022-10-03T07:26:51.789Z,3.03
2022-10-03T07:30:01.017Z,3.40
2022-10-03T07:33:06.033Z,3.60
2022-10-03T07:36:38.355Z,3.50
2022-10-03T07:40:13.241Z,3.57
2022-10-03T07:43:02.152Z,3.90
2022-10-03T07:45:40.862Z,4.10
2022-10-03T07:49:04.885Z,3.40
2022-10-03T07:52:00.707Z,3.60
2022-10-03T07:55:10.437Z,3.80
2022-10-03T07:57:52.135Z,3.50
2022-10-03T08:00:40.414Z,4.20
2022-10-03T08:04:24.140Z,3.40
2022-10-03T08:07:20.147Z,3.67
2022-10-03T08:10:16.036Z,4.60
2022-10-03T08:13:14.463Z,4.30
2022-10-03T08:16:07.402Z,4.03
2022-10-03T08:18:42.839Z,3.90
2022-10-03T08:21:22.103Z,4.57
2022-10-03T08:24:22.133Z,4.73
2022-10-03T08:27:26.632Z,4.97
2022-10-03T08:30:23.749Z,3.80
2022-10-03T08:32:59.487Z,4.23
2022-10-03T08:35:57.651Z,4.50
2022-10-03T08:38:55.574Z,4.00
2022-10-03T08:42:15.324Z,4.00
2022-10-03T08:45:25.031Z,4.37
2022-10-03T08:48:41.469Z,3.60
2022-10-03T08:51:55.375Z,4.10
2022-10-03T08:55:23.359Z,4.50
2022-10-03T08:58:31.763Z,4.07
2022-10-03T09:01:36.011Z,3.60
2022-10-03T09:04:46.353Z,3.40
2022-10-03T09:07:37.450Z,3.67
2022-10-03T09:10:41.549Z,3.47
2022-10-03T09:13:47.875Z,3.30
2022-10-03T09:17:06.460Z,3.97
2022-10-03T09:20:24.372Z,3.10
2022-10-03T09:23:26.079Z,3.47
2022-10-03T09:26:56.006Z,3.30
2022-10-03T09:29:50.989Z,3.40
2022-10-03T09:32:42.844Z,3.27
2022-10-03T09:35:36.010Z,3.03
2022-10-03T09:38:58.707Z,2.90
2022-10-03T09:41:31.846Z,2.90
2022-10-03T09:44:37.728Z,2.97
2022-10-03T09:47:29.191Z,2.97
2022-10-03T09:50:19.383Z,2.50
2022-10-03T09:53:04.198Z,2.90
2022-10-03T09:56:35.887Z,2.60
2022-10-03T09:59:34.219Z,2.97
2022-10-03T10:02:23.041Z,3.07
2022-10-03T10:04:55.226Z,2.80
2022-10-03T10:07:22.474Z,2.50
